Terminal Aerodrome Forecast
Issued by NWS

Home | Current Version | Previous Version | Text Only | Print | Product List | Glossary Off
Versions: 1 2 3 4 5 6 7 8 9 10 11 12 13

000
FTUS43 KICT 211735
TAFRSL
TAF
KRSL 211735Z 2118/2218 05015G22KT P6SM VCSH BKN060
     FM212100 02015KT 5SM -RA OVC015
     FM220400 01016G23KT P6SM BKN015
     FM220800 36010KT P6SM SCT100=

USA.gov is the U.S. government's official web portal to all federal, state and local government web resources and services.